sensor_id;sensor_type;location;lat;lon;timestamp;pressure;altitude;pressure_sealevel;temperature;humidity
26839;BME280;40088;51.214;6.786;2022-08-21T00:04:43;101426.91;;;22.40;64.24
26839;BME280;40088;51.214;6.786;2022-08-21T00:14:43;101427.75;;;22.40;64.09
26839;BME280;40088;51.214;6.786;2022-08-21T00:24:44;101413.03;;;22.40;64.27
26839;BME280;40088;51.214;6.786;2022-08-21T00:34:44;101396.56;;;22.38;64.00
26839;BME280;40088;51.214;6.786;2022-08-21T00:44:46;101396.56;;;22.38;64.50
26839;BME280;40088;51.214;6.786;2022-08-21T00:54:48;101396.56;;;22.38;64.55
26839;BME280;40088;51.214;6.786;2022-08-21T01:04:50;101395.69;;;22.38;64.45
26839;BME280;40088;51.214;6.786;2022-08-21T01:14:50;101400.22;;;22.39;64.34
26839;BME280;40088;51.214;6.786;2022-08-21T01:24:51;101401.25;;;22.38;64.14
26839;BME280;40088;51.214;6.786;2022-08-21T01:34:52;101405.97;;;22.37;64.45
26839;BME280;40088;51.214;6.786;2022-08-21T01:44:53;101411.50;;;22.37;64.41
26839;BME280;40088;51.214;6.786;2022-08-21T01:54:53;101395.06;;;22.35;64.80
26839;BME280;40088;51.214;6.786;2022-08-21T02:04:53;101401.25;;;22.38;64.48
26839;BME280;40088;51.214;6.786;2022-08-21T02:14:54;101397.84;;;22.35;64.55
26839;BME280;40088;51.214;6.786;2022-08-21T02:24:54;101391.44;;;22.35;64.39
26839;BME280;40088;51.214;6.786;2022-08-21T02:34:54;101392.31;;;22.35;64.50
26839;BME280;40088;51.214;6.786;2022-08-21T02:44:54;101387.81;;;22.34;64.19
26839;BME280;40088;51.214;6.786;2022-08-21T02:54:55;101390.59;;;22.34;64.30
26839;BME280;40088;51.214;6.786;2022-08-21T03:04:55;101393.16;;;22.36;64.68
26839;BME280;40088;51.214;6.786;2022-08-21T03:14:55;101374.78;;;22.35;64.34
26839;BME280;40088;51.214;6.786;2022-08-21T03:24:56;101376.72;;;22.34;64.44
26839;BME280;40088;51.214;6.786;2022-08-21T03:34:57;101389.53;;;22.35;64.36
26839;BME280;40088;51.214;6.786;2022-08-21T03:44:58;101383.34;;;22.33;64.57
26839;BME280;40088;51.214;6.786;2022-08-21T03:54:58;101368.63;;;22.33;64.26
26839;BME280;40088;51.214;6.786;2022-08-21T04:04:58;101388.25;;;22.31;64.46
26839;BME280;40088;51.214;6.786;2022-08-21T04:14:59;101409.38;;;22.32;64.34
26839;BME280;40088;51.214;6.786;2022-08-21T04:24:59;101413.22;;;22.31;64.40
26839;BME280;40088;51.214;6.786;2022-08-21T04:35:06;101416.84;;;22.32;64.32
26839;BME280;40088;51.214;6.786;2022-08-21T04:45:06;101412.38;;;22.31;64.19
26839;BME280;40088;51.214;6.786;2022-08-21T04:55:07;101419.00;;;22.30;64.20
26839;BME280;40088;51.214;6.786;2022-08-21T05:05:08;101412.59;;;22.29;64.23
26839;BME280;40088;51.214;6.786;2022-08-21T05:15:10;101415.38;;;22.29;63.97
26839;BME280;40088;51.214;6.786;2022-08-21T05:25:12;101423.94;;;22.28;63.85
26839;BME280;40088;51.214;6.786;2022-08-21T05:35:12;101435.91;;;22.28;64.07
26839;BME280;40088;51.214;6.786;2022-08-21T05:45:12;101439.72;;;22.27;63.82
26839;BME280;40088;51.214;6.786;2022-08-21T05:55:13;101437.81;;;22.28;64.03
26839;BME280;40088;51.214;6.786;2022-08-21T06:05:13;101435.91;;;22.28;64.14
26839;BME280;40088;51.214;6.786;2022-08-21T06:15:13;101429.50;;;22.28;64.11
26839;BME280;40088;51.214;6.786;2022-08-21T06:25:13;101432.47;;;22.26;63.81
26839;BME280;40088;51.214;6.786;2022-08-21T06:35:14;101436.94;;;22.27;63.84
26839;BME280;40088;51.214;6.786;2022-08-21T06:45:14;101438.00;;;22.26;63.72
26839;BME280;40088;51.214;6.786;2022-08-21T06:55:15;101431.63;;;22.26;63.33
26839;BME280;40088;51.214;6.786;2022-08-21T07:05:15;101435.25;;;22.26;63.46
26839;BME280;40088;51.214;6.786;2022-08-21T07:15:16;101430.75;;;22.25;63.52
26839;BME280;40088;51.214;6.786;2022-08-21T07:25:17;101424.34;;;22.25;62.96
26839;BME280;40088;51.214;6.786;2022-08-21T07:35:18;101429.06;;;22.24;63.26
26839;BME280;40088;51.214;6.786;2022-08-21T07:45:21;101429.06;;;22.24;63.22
26839;BME280;40088;51.214;6.786;2022-08-21T07:55:23;101434.63;;;22.24;62.83
26839;BME280;40088;51.214;6.786;2022-08-21T08:05:28;101421.81;;;22.23;62.85
26839;BME280;40088;51.214;6.786;2022-08-21T08:15:29;101411.31;;;22.25;62.84
26839;BME280;40088;51.214;6.786;2022-08-21T08:25:29;101407.94;;;22.23;63.03
26839;BME280;40088;51.214;6.786;2022-08-21T08:35:29;101411.75;;;22.22;62.60
26839;BME280;40088;51.214;6.786;2022-08-21T08:45:32;101407.06;;;22.23;62.92
26839;BME280;40088;51.214;6.786;2022-08-21T08:55:39;101402.38;;;22.23;63.02
26839;BME280;40088;51.214;6.786;2022-08-21T09:05:45;101392.31;;;22.22;62.92
26839;BME280;40088;51.214;6.786;2022-08-21T09:15:56;101390.41;;;22.23;62.93
26839;BME280;40088;51.214;6.786;2022-08-21T09:26:16;101383.97;;;22.22;62.41
26839;BME280;40088;51.214;6.786;2022-08-21T09:36:37;101383.97;;;22.22;62.44
26839;BME280;40088;51.214;6.786;2022-08-21T09:46:37;101385.06;;;22.21;62.48
26839;BME280;40088;51.214;6.786;2022-08-21T09:57:01;101391.69;;;22.20;62.76
26839;BME280;40088;51.214;6.786;2022-08-21T10:07:21;101379.50;;;22.21;62.11
26839;BME280;40088;51.214;6.786;2022-08-21T10:38:21;101340.88;;;22.20;61.92
26839;BME280;40088;51.214;6.786;2022-08-21T10:48:33;101354.53;;;22.21;62.02
26839;BME280;40088;51.214;6.786;2022-08-21T10:58:40;101339.78;;;22.21;62.08
26839;BME280;40088;51.214;6.786;2022-08-21T11:08:50;101345.13;;;22.22;62.06
26839;BME280;40088;51.214;6.786;2022-08-21T11:19:00;101342.34;;;22.22;62.28
26839;BME280;40088;51.214;6.786;2022-08-21T11:29:27;101329.53;;;22.21;62.14
26839;BME280;40088;51.214;6.786;2022-08-21T11:39:43;101335.09;;;22.21;62.42
26839;BME280;40088;51.214;6.786;2022-08-21T11:50:01;101347.69;;;22.24;62.31
26839;BME280;40088;51.214;6.786;2022-08-21T12:10:14;101315.47;;;22.23;62.38
26839;BME280;40088;51.214;6.786;2022-08-21T12:30:39;101316.31;;;22.23;62.29
26839;BME280;40088;51.214;6.786;2022-08-21T12:40:43;101296.88;;;22.23;62.05
26839;BME280;40088;51.214;6.786;2022-08-21T12:50:57;101315.22;;;22.24;62.48
26839;BME280;40088;51.214;6.786;2022-08-21T13:01:14;101303.28;;;22.24;62.30
26839;BME280;40088;51.214;6.786;2022-08-21T13:11:19;101303.06;;;22.25;62.17
26839;BME280;40088;51.214;6.786;2022-08-21T13:21:27;101294.72;;;22.25;62.29
26839;BME280;40088;51.214;6.786;2022-08-21T13:31:29;101293.66;;;22.26;62.45
26839;BME280;40088;51.214;6.786;2022-08-21T13:41:35;101281.47;;;22.27;62.41
26839;BME280;40088;51.214;6.786;2022-08-21T13:51:36;101284.25;;;22.27;62.81
26839;BME280;40088;51.214;6.786;2022-08-21T14:01:48;101277.00;;;22.26;62.57
26839;BME280;40088;51.214;6.786;2022-08-21T14:11:49;101278.69;;;22.27;62.75
26839;BME280;40088;51.214;6.786;2022-08-21T14:21:50;101276.56;;;22.29;62.65
26839;BME280;40088;51.214;6.786;2022-08-21T14:31:55;101265.69;;;22.28;62.99
26839;BME280;40088;51.214;6.786;2022-08-21T14:41:56;101267.38;;;22.29;62.58
26839;BME280;40088;51.214;6.786;2022-08-21T14:51:58;101259.06;;;22.29;63.00
26839;BME280;40088;51.214;6.786;2022-08-21T15:01:58;101251.56;;;22.29;63.06
26839;BME280;40088;51.214;6.786;2022-08-21T15:12:00;101256.28;;;22.29;62.74
26839;BME280;40088;51.214;6.786;2022-08-21T15:22:00;101257.13;;;22.29;62.95
26839;BME280;40088;51.214;6.786;2022-08-21T15:32:16;101241.56;;;22.28;62.67
26839;BME280;40088;51.214;6.786;2022-08-21T15:42:17;101240.25;;;22.31;62.79
26839;BME280;40088;51.214;6.786;2022-08-21T15:52:20;101243.25;;;22.29;62.76
26839;BME280;40088;51.214;6.786;2022-08-21T16:02:27;101237.47;;;22.31;63.17
26839;BME280;40088;51.214;6.786;2022-08-21T16:12:31;101244.72;;;22.32;63.08
26839;BME280;40088;51.214;6.786;2022-08-21T16:22:32;101247.72;;;22.30;62.76
26839;BME280;40088;51.214;6.786;2022-08-21T16:32:33;101238.31;;;22.31;62.86
26839;BME280;40088;51.214;6.786;2022-08-21T16:42:34;101231.91;;;22.31;63.25
26839;BME280;40088;51.214;6.786;2022-08-21T16:52:35;101244.09;;;22.30;63.11
26839;BME280;40088;51.214;6.786;2022-08-21T17:02:38;101248.81;;;22.29;62.71
26839;BME280;40088;51.214;6.786;2022-08-21T17:12:41;101251.34;;;22.31;62.88
26839;BME280;40088;51.214;6.786;2022-08-21T17:22:42;101246.63;;;22.31;63.01
26839;BME280;40088;51.214;6.786;2022-08-21T17:32:43;101248.56;;;22.31;62.73
26839;BME280;40088;51.214;6.786;2022-08-21T17:42:46;101248.56;;;22.31;62.94
26839;BME280;40088;51.214;6.786;2022-08-21T17:52:47;101251.34;;;22.31;62.87
26839;BME280;40088;51.214;6.786;2022-08-21T18:02:54;101257.75;;;22.31;62.74
26839;BME280;40088;51.214;6.786;2022-08-21T18:13:05;101258.81;;;22.30;62.90
26839;BME280;40088;51.214;6.786;2022-08-21T18:23:07;101264.16;;;22.32;62.64
26839;BME280;40088;51.214;6.786;2022-08-21T18:33:08;101263.31;;;22.31;62.97
26839;BME280;40088;51.214;6.786;2022-08-21T18:43:10;101263.53;;;22.30;62.90
26839;BME280;40088;51.214;6.786;2022-08-21T18:53:13;101281.88;;;22.31;62.82
26839;BME280;40088;51.214;6.786;2022-08-21T19:03:16;101285.75;;;22.30;62.92
26839;BME280;40088;51.214;6.786;2022-08-21T19:13:19;101293.00;;;22.31;62.79
26839;BME280;40088;51.214;6.786;2022-08-21T19:23:20;101293.84;;;22.31;63.14
26839;BME280;40088;51.214;6.786;2022-08-21T19:33:25;101297.69;;;22.30;62.98
26839;BME280;40088;51.214;6.786;2022-08-21T19:43:26;101294.06;;;22.30;62.98
26839;BME280;40088;51.214;6.786;2022-08-21T19:53:26;101303.25;;;22.30;63.08
26839;BME280;40088;51.214;6.786;2022-08-21T20:03:26;101296.00;;;22.29;63.08
26839;BME280;40088;51.214;6.786;2022-08-21T20:13:29;101298.78;;;22.29;63.18
26839;BME280;40088;51.214;6.786;2022-08-21T20:23:33;101302.41;;;22.30;62.95
26839;BME280;40088;51.214;6.786;2022-08-21T20:33:33;101306.03;;;22.30;61.81
26839;BME280;40088;51.214;6.786;2022-08-21T20:43:35;101309.88;;;22.29;61.43
26839;BME280;40088;51.214;6.786;2022-08-21T21:03:56;101319.06;;;22.30;60.86
26839;BME280;40088;51.214;6.786;2022-08-21T21:14:04;101311.81;;;22.29;60.64
26839;BME280;40088;51.214;6.786;2022-08-21T21:24:10;101315.66;;;22.28;60.20
26839;BME280;40088;51.214;6.786;2022-08-21T21:34:12;101304.56;;;22.28;60.16
26839;BME280;40088;51.214;6.786;2022-08-21T21:54:56;101303.66;;;22.27;59.69
26839;BME280;40088;51.214;6.786;2022-08-21T22:05:17;101307.34;;;22.28;59.76
26839;BME280;40088;51.214;6.786;2022-08-21T22:15:20;101304.75;;;22.26;59.70
26839;BME280;40088;51.214;6.786;2022-08-21T22:25:23;101311.16;;;22.27;59.55
26839;BME280;40088;51.214;6.786;2022-08-21T22:35:25;101321.41;;;22.26;59.35
26839;BME280;40088;51.214;6.786;2022-08-21T22:55:57;101319.47;;;22.27;59.34
26839;BME280;40088;51.214;6.786;2022-08-21T23:06:04;101326.13;;;22.26;59.46
26839;BME280;40088;51.214;6.786;2022-08-21T23:27:35;101309.44;;;22.26;59.03
26839;BME280;40088;51.214;6.786;2022-08-21T23:37:56;101304.75;;;22.26;59.27
26839;BME280;40088;51.214;6.786;2022-08-21T23:58:28;101301.13;;;22.26;59.28
